sensor_id;sensor_type;location;lat;lon;timestamp;P1;durP1;ratioP1;P2;durP2;ratioP2
14052;SDS011;7101;51.600;7.310;2023-01-23T00:02:09;22.30;;;15.10;;
14052;SDS011;7101;51.600;7.310;2023-01-23T00:04:37;24.92;;;16.10;;
14052;SDS011;7101;51.600;7.310;2023-01-23T00:07:04;22.23;;;15.77;;
14052;SDS011;7101;51.600;7.310;2023-01-23T00:09:31;18.83;;;14.15;;
14052;SDS011;7101;51.600;7.310;2023-01-23T00:12:04;20.90;;;15.50;;
14052;SDS011;7101;51.600;7.310;2023-01-23T00:14:31;19.17;;;14.32;;
14052;SDS011;7101;51.600;7.310;2023-01-23T00:16:58;20.52;;;14.68;;
14052;SDS011;7101;51.600;7.310;2023-01-23T00:19:25;20.10;;;14.55;;
14052;SDS011;7101;51.600;7.310;2023-01-23T00:21:53;20.58;;;14.98;;
14052;SDS011;7101;51.600;7.310;2023-01-23T00:24:20;16.98;;;13.18;;
14052;SDS011;7101;51.600;7.310;2023-01-23T00:26:47;17.67;;;13.00;;
14052;SDS011;7101;51.600;7.310;2023-01-23T00:29:13;19.48;;;14.07;;
14052;SDS011;7101;51.600;7.310;2023-01-23T00:31:40;20.20;;;15.18;;
14052;SDS011;7101;51.600;7.310;2023-01-23T00:34:09;19.27;;;13.90;;
14052;SDS011;7101;51.600;7.310;2023-01-23T00:36:38;19.77;;;14.55;;
14052;SDS011;7101;51.600;7.310;2023-01-23T00:39:09;20.42;;;14.95;;
14052;SDS011;7101;51.600;7.310;2023-01-23T00:41:40;21.55;;;15.18;;
14052;SDS011;7101;51.600;7.310;2023-01-23T00:44:07;20.30;;;14.15;;
14052;SDS011;7101;51.600;7.310;2023-01-23T00:46:34;21.20;;;14.73;;
14052;SDS011;7101;51.600;7.310;2023-01-23T00:49:01;19.70;;;14.82;;
14052;SDS011;7101;51.600;7.310;2023-01-23T00:51:27;19.70;;;14.98;;
14052;SDS011;7101;51.600;7.310;2023-01-23T00:53:54;22.77;;;16.20;;
14052;SDS011;7101;51.600;7.310;2023-01-23T00:56:23;21.98;;;16.08;;
14052;SDS011;7101;51.600;7.310;2023-01-23T00:58:49;20.35;;;16.10;;
14052;SDS011;7101;51.600;7.310;2023-01-23T01:01:16;19.15;;;14.98;;
14052;SDS011;7101;51.600;7.310;2023-01-23T01:03:44;20.65;;;14.70;;
14052;SDS011;7101;51.600;7.310;2023-01-23T01:06:11;21.45;;;15.30;;
14052;SDS011;7101;51.600;7.310;2023-01-23T01:08:40;21.23;;;15.77;;
14052;SDS011;7101;51.600;7.310;2023-01-23T01:11:07;22.33;;;15.50;;
14052;SDS011;7101;51.600;7.310;2023-01-23T01:13:35;21.67;;;15.55;;
14052;SDS011;7101;51.600;7.310;2023-01-23T01:16:02;22.27;;;15.60;;
14052;SDS011;7101;51.600;7.310;2023-01-23T01:18:29;20.48;;;14.88;;
14052;SDS011;7101;51.600;7.310;2023-01-23T01:20:56;22.20;;;15.73;;
14052;SDS011;7101;51.600;7.310;2023-01-23T01:23:24;21.50;;;15.60;;
14052;SDS011;7101;51.600;7.310;2023-01-23T01:25:51;20.02;;;15.18;;
14052;SDS011;7101;51.600;7.310;2023-01-23T01:28:17;23.15;;;16.77;;
14052;SDS011;7101;51.600;7.310;2023-01-23T01:30:46;21.35;;;15.45;;
14052;SDS011;7101;51.600;7.310;2023-01-23T01:33:13;23.42;;;15.60;;
14052;SDS011;7101;51.600;7.310;2023-01-23T01:35:40;22.85;;;15.90;;
14052;SDS011;7101;51.600;7.310;2023-01-23T01:38:07;21.33;;;15.77;;
14052;SDS011;7101;51.600;7.310;2023-01-23T01:40:34;21.50;;;16.40;;
14052;SDS011;7101;51.600;7.310;2023-01-23T01:43:02;22.23;;;15.93;;
14052;SDS011;7101;51.600;7.310;2023-01-23T01:48:26;20.55;;;15.52;;
14052;SDS011;7101;51.600;7.310;2023-01-23T01:50:57;22.02;;;16.27;;
14052;SDS011;7101;51.600;7.310;2023-01-23T01:53:26;21.42;;;15.55;;
14052;SDS011;7101;51.600;7.310;2023-01-23T01:55:56;22.33;;;15.30;;
14052;SDS011;7101;51.600;7.310;2023-01-23T01:58:23;21.55;;;16.08;;
14052;SDS011;7101;51.600;7.310;2023-01-23T02:00:51;24.80;;;16.27;;
14052;SDS011;7101;51.600;7.310;2023-01-23T02:03:19;22.70;;;15.65;;
14052;SDS011;7101;51.600;7.310;2023-01-23T02:05:47;24.55;;;16.38;;
14052;SDS011;7101;51.600;7.310;2023-01-23T02:08:17;22.52;;;15.45;;
14052;SDS011;7101;51.600;7.310;2023-01-23T02:10:48;21.55;;;15.27;;
14052;SDS011;7101;51.600;7.310;2023-01-23T02:13:20;18.10;;;14.10;;
14052;SDS011;7101;51.600;7.310;2023-01-23T02:15:51;20.88;;;15.02;;
14052;SDS011;7101;51.600;7.310;2023-01-23T02:18:20;20.00;;;15.43;;
14052;SDS011;7101;51.600;7.310;2023-01-23T02:20:47;19.73;;;15.30;;
14052;SDS011;7101;51.600;7.310;2023-01-23T02:23:19;23.55;;;15.93;;
14052;SDS011;7101;51.600;7.310;2023-01-23T02:25:58;20.48;;;14.73;;
14052;SDS011;7101;51.600;7.310;2023-01-23T02:28:35;21.13;;;15.25;;
14052;SDS011;7101;51.600;7.310;2023-01-23T02:31:03;19.67;;;15.05;;
14052;SDS011;7101;51.600;7.310;2023-01-23T02:33:42;20.77;;;15.55;;
14052;SDS011;7101;51.600;7.310;2023-01-23T02:36:12;20.67;;;14.77;;
14052;SDS011;7101;51.600;7.310;2023-01-23T02:38:41;21.50;;;15.52;;
14052;SDS011;7101;51.600;7.310;2023-01-23T02:41:16;21.67;;;15.20;;
14052;SDS011;7101;51.600;7.310;2023-01-23T02:43:45;17.80;;;14.27;;
14052;SDS011;7101;51.600;7.310;2023-01-23T02:46:14;21.67;;;14.45;;
14052;SDS011;7101;51.600;7.310;2023-01-23T02:48:43;20.88;;;15.30;;
14052;SDS011;7101;51.600;7.310;2023-01-23T02:51:09;21.58;;;14.45;;
14052;SDS011;7101;51.600;7.310;2023-01-23T02:53:36;19.30;;;14.05;;
14052;SDS011;7101;51.600;7.310;2023-01-23T02:56:03;19.20;;;14.57;;
14052;SDS011;7101;51.600;7.310;2023-01-23T02:58:32;20.45;;;15.23;;
14052;SDS011;7101;51.600;7.310;2023-01-23T03:01:16;20.02;;;14.75;;
14052;SDS011;7101;51.600;7.310;2023-01-23T03:03:43;24.00;;;15.00;;
14052;SDS011;7101;51.600;7.310;2023-01-23T03:06:10;21.08;;;15.13;;
14052;SDS011;7101;51.600;7.310;2023-01-23T03:08:37;20.52;;;14.32;;
14052;SDS011;7101;51.600;7.310;2023-01-23T03:11:12;20.92;;;15.13;;
14052;SDS011;7101;51.600;7.310;2023-01-23T03:13:42;18.80;;;14.55;;
14052;SDS011;7101;51.600;7.310;2023-01-23T03:16:09;20.23;;;15.05;;
14052;SDS011;7101;51.600;7.310;2023-01-23T03:18:36;20.27;;;14.27;;
14052;SDS011;7101;51.600;7.310;2023-01-23T03:21:04;20.15;;;14.98;;
14052;SDS011;7101;51.600;7.310;2023-01-23T03:23:32;21.08;;;15.30;;
14052;SDS011;7101;51.600;7.310;2023-01-23T03:25:59;20.48;;;15.10;;
14052;SDS011;7101;51.600;7.310;2023-01-23T03:28:26;22.02;;;15.85;;
14052;SDS011;7101;51.600;7.310;2023-01-23T03:31:14;23.00;;;15.27;;
14052;SDS011;7101;51.600;7.310;2023-01-23T03:33:42;23.00;;;16.02;;
14052;SDS011;7101;51.600;7.310;2023-01-23T03:36:09;20.02;;;14.90;;
14052;SDS011;7101;51.600;7.310;2023-01-23T03:38:37;22.98;;;15.38;;
14052;SDS011;7101;51.600;7.310;2023-01-23T03:41:24;21.08;;;15.70;;
14052;SDS011;7101;51.600;7.310;2023-01-23T03:43:49;22.58;;;16.00;;
14052;SDS011;7101;51.600;7.310;2023-01-23T03:46:18;21.48;;;15.85;;
14052;SDS011;7101;51.600;7.310;2023-01-23T03:48:45;22.00;;;16.02;;
14052;SDS011;7101;51.600;7.310;2023-01-23T03:51:11;20.85;;;15.63;;
14052;SDS011;7101;51.600;7.310;2023-01-23T03:53:39;21.90;;;15.98;;
14052;SDS011;7101;51.600;7.310;2023-01-23T03:56:06;22.08;;;15.88;;
14052;SDS011;7101;51.600;7.310;2023-01-23T03:58:33;23.00;;;16.42;;
14052;SDS011;7101;51.600;7.310;2023-01-23T04:01:03;21.65;;;15.85;;
14052;SDS011;7101;51.600;7.310;2023-01-23T04:03:32;21.15;;;15.63;;
14052;SDS011;7101;51.600;7.310;2023-01-23T04:05:59;21.33;;;15.18;;
14052;SDS011;7101;51.600;7.310;2023-01-23T04:08:26;20.17;;;15.90;;
14052;SDS011;7101;51.600;7.310;2023-01-23T04:10:59;21.27;;;15.60;;
14052;SDS011;7101;51.600;7.310;2023-01-23T04:13:27;22.83;;;15.80;;
14052;SDS011;7101;51.600;7.310;2023-01-23T04:15:53;22.25;;;15.55;;
14052;SDS011;7101;51.600;7.310;2023-01-23T04:18:20;21.73;;;16.33;;
14052;SDS011;7101;51.600;7.310;2023-01-23T04:20:49;22.40;;;15.68;;
14052;SDS011;7101;51.600;7.310;2023-01-23T04:23:15;20.30;;;14.68;;
14052;SDS011;7101;51.600;7.310;2023-01-23T04:25:42;20.15;;;14.32;;
14052;SDS011;7101;51.600;7.310;2023-01-23T04:28:09;22.15;;;15.13;;
14052;SDS011;7101;51.600;7.310;2023-01-23T04:30:36;22.70;;;15.77;;
14052;SDS011;7101;51.600;7.310;2023-01-23T04:33:03;21.02;;;15.07;;
14052;SDS011;7101;51.600;7.310;2023-01-23T04:35:30;22.13;;;14.93;;
14052;SDS011;7101;51.600;7.310;2023-01-23T04:37:58;20.75;;;15.02;;
14052;SDS011;7101;51.600;7.310;2023-01-23T04:40:25;21.88;;;15.82;;
14052;SDS011;7101;51.600;7.310;2023-01-23T04:42:52;20.42;;;14.95;;
14052;SDS011;7101;51.600;7.310;2023-01-23T04:45:19;19.65;;;15.27;;
14052;SDS011;7101;51.600;7.310;2023-01-23T04:47:46;21.67;;;15.82;;
14052;SDS011;7101;51.600;7.310;2023-01-23T04:50:12;21.30;;;14.80;;
14052;SDS011;7101;51.600;7.310;2023-01-23T04:52:39;23.90;;;15.95;;
14052;SDS011;7101;51.600;7.310;2023-01-23T04:55:08;22.58;;;16.02;;
14052;SDS011;7101;51.600;7.310;2023-01-23T04:57:35;23.52;;;16.10;;
14052;SDS011;7101;51.600;7.310;2023-01-23T05:00:02;23.58;;;16.10;;
14052;SDS011;7101;51.600;7.310;2023-01-23T05:02:30;21.42;;;15.85;;
14052;SDS011;7101;51.600;7.310;2023-01-23T05:04:56;22.08;;;15.32;;
14052;SDS011;7101;51.600;7.310;2023-01-23T05:07:23;23.77;;;15.55;;
14052;SDS011;7101;51.600;7.310;2023-01-23T05:09:50;21.45;;;15.63;;
14052;SDS011;7101;51.600;7.310;2023-01-23T05:12:18;22.83;;;16.25;;
14052;SDS011;7101;51.600;7.310;2023-01-23T05:14:45;22.10;;;15.95;;
14052;SDS011;7101;51.600;7.310;2023-01-23T05:17:12;21.92;;;15.52;;
14052;SDS011;7101;51.600;7.310;2023-01-23T05:19:38;21.25;;;15.55;;
14052;SDS011;7101;51.600;7.310;2023-01-23T05:22:06;22.67;;;16.10;;
14052;SDS011;7101;51.600;7.310;2023-01-23T05:24:33;21.55;;;15.70;;
14052;SDS011;7101;51.600;7.310;2023-01-23T05:27:00;23.80;;;15.98;;
14052;SDS011;7101;51.600;7.310;2023-01-23T05:29:30;21.95;;;15.77;;
14052;SDS011;7101;51.600;7.310;2023-01-23T05:31:57;20.73;;;15.45;;
14052;SDS011;7101;51.600;7.310;2023-01-23T05:34:24;22.33;;;15.65;;
14052;SDS011;7101;51.600;7.310;2023-01-23T05:36:51;23.15;;;15.73;;
14052;SDS011;7101;51.600;7.310;2023-01-23T05:39:18;21.73;;;15.27;;
14052;SDS011;7101;51.600;7.310;2023-01-23T05:41:44;23.20;;;16.23;;
14052;SDS011;7101;51.600;7.310;2023-01-23T05:44:11;22.55;;;15.82;;
14052;SDS011;7101;51.600;7.310;2023-01-23T05:46:40;21.00;;;15.73;;
14052;SDS011;7101;51.600;7.310;2023-01-23T05:49:06;23.77;;;16.40;;
14052;SDS011;7101;51.600;7.310;2023-01-23T05:51:33;23.33;;;16.55;;
14052;SDS011;7101;51.600;7.310;2023-01-23T05:54:01;21.73;;;15.65;;
14052;SDS011;7101;51.600;7.310;2023-01-23T05:56:28;21.38;;;15.10;;
14052;SDS011;7101;51.600;7.310;2023-01-23T05:58:55;22.27;;;16.20;;
14052;SDS011;7101;51.600;7.310;2023-01-23T06:01:22;20.92;;;15.45;;
14052;SDS011;7101;51.600;7.310;2023-01-23T06:03:50;23.27;;;16.38;;
14052;SDS011;7101;51.600;7.310;2023-01-23T06:06:17;21.95;;;15.75;;
14052;SDS011;7101;51.600;7.310;2023-01-23T06:08:44;23.38;;;16.20;;
14052;SDS011;7101;51.600;7.310;2023-01-23T06:11:11;23.50;;;16.73;;
14052;SDS011;7101;51.600;7.310;2023-01-23T06:13:38;24.50;;;16.08;;
14052;SDS011;7101;51.600;7.310;2023-01-23T06:16:05;21.80;;;15.07;;
14052;SDS011;7101;51.600;7.310;2023-01-23T06:18:33;22.77;;;15.55;;
14052;SDS011;7101;51.600;7.310;2023-01-23T06:21:01;22.17;;;15.77;;
14052;SDS011;7101;51.600;7.310;2023-01-23T06:23:30;22.90;;;15.82;;
14052;SDS011;7101;51.600;7.310;2023-01-23T06:25:58;22.70;;;15.18;;
14052;SDS011;7101;51.600;7.310;2023-01-23T06:28:25;26.98;;;15.45;;
14052;SDS011;7101;51.600;7.310;2023-01-23T06:30:52;21.45;;;15.98;;
14052;SDS011;7101;51.600;7.310;2023-01-23T06:33:19;22.92;;;15.75;;
14052;SDS011;7101;51.600;7.310;2023-01-23T06:35:46;21.38;;;15.15;;
14052;SDS011;7101;51.600;7.310;2023-01-23T06:41:36;22.67;;;14.73;;
14052;SDS011;7101;51.600;7.310;2023-01-23T06:44:03;21.67;;;15.02;;
14052;SDS011;7101;51.600;7.310;2023-01-23T06:46:33;20.88;;;14.15;;
14052;SDS011;7101;51.600;7.310;2023-01-23T06:48:59;21.98;;;14.55;;
14052;SDS011;7101;51.600;7.310;2023-01-23T06:51:31;18.77;;;13.30;;
14052;SDS011;7101;51.600;7.310;2023-01-23T06:53:59;20.45;;;13.80;;
14052;SDS011;7101;51.600;7.310;2023-01-23T06:56:27;22.08;;;14.57;;
14052;SDS011;7101;51.600;7.310;2023-01-23T06:58:55;20.20;;;13.43;;
14052;SDS011;7101;51.600;7.310;2023-01-23T07:01:22;18.92;;;12.82;;
14052;SDS011;7101;51.600;7.310;2023-01-23T07:03:50;18.77;;;13.52;;
14052;SDS011;7101;51.600;7.310;2023-01-23T07:06:19;20.80;;;13.80;;
14052;SDS011;7101;51.600;7.310;2023-01-23T07:08:46;18.67;;;13.68;;
14052;SDS011;7101;51.600;7.310;2023-01-23T07:11:15;18.63;;;13.23;;
14052;SDS011;7101;51.600;7.310;2023-01-23T07:13:42;19.48;;;13.32;;
14052;SDS011;7101;51.600;7.310;2023-01-23T07:16:10;18.40;;;12.98;;
14052;SDS011;7101;51.600;7.310;2023-01-23T07:18:37;19.67;;;13.82;;
14052;SDS011;7101;51.600;7.310;2023-01-23T07:21:04;19.52;;;13.07;;
14052;SDS011;7101;51.600;7.310;2023-01-23T07:23:32;19.10;;;13.45;;
14052;SDS011;7101;51.600;7.310;2023-01-23T07:25:59;19.25;;;13.35;;
14052;SDS011;7101;51.600;7.310;2023-01-23T07:28:27;20.08;;;13.85;;
14052;SDS011;7101;51.600;7.310;2023-01-23T07:30:55;20.67;;;14.10;;
14052;SDS011;7101;51.600;7.310;2023-01-23T07:33:25;18.55;;;12.73;;
14052;SDS011;7101;51.600;7.310;2023-01-23T07:35:52;19.83;;;13.50;;
14052;SDS011;7101;51.600;7.310;2023-01-23T07:38:26;20.25;;;13.30;;
14052;SDS011;7101;51.600;7.310;2023-01-23T07:40:56;20.85;;;13.63;;
14052;SDS011;7101;51.600;7.310;2023-01-23T07:43:24;21.17;;;13.48;;
14052;SDS011;7101;51.600;7.310;2023-01-23T07:45:51;22.67;;;14.10;;
14052;SDS011;7101;51.600;7.310;2023-01-23T07:48:18;21.98;;;13.98;;
14052;SDS011;7101;51.600;7.310;2023-01-23T07:50:47;18.95;;;12.70;;
14052;SDS011;7101;51.600;7.310;2023-01-23T07:53:15;21.25;;;13.82;;
14052;SDS011;7101;51.600;7.310;2023-01-23T07:55:42;20.05;;;12.88;;
14052;SDS011;7101;51.600;7.310;2023-01-23T07:58:11;20.05;;;13.63;;
14052;SDS011;7101;51.600;7.310;2023-01-23T08:00:38;18.90;;;13.68;;
14052;SDS011;7101;51.600;7.310;2023-01-23T08:03:05;19.35;;;13.82;;
14052;SDS011;7101;51.600;7.310;2023-01-23T08:05:32;22.15;;;14.10;;
14052;SDS011;7101;51.600;7.310;2023-01-23T08:08:03;20.38;;;14.00;;
14052;SDS011;7101;51.600;7.310;2023-01-23T08:10:30;20.15;;;14.13;;
14052;SDS011;7101;51.600;7.310;2023-01-23T08:13:03;20.10;;;14.10;;
14052;SDS011;7101;51.600;7.310;2023-01-23T08:15:32;20.90;;;13.73;;
14052;SDS011;7101;51.600;7.310;2023-01-23T08:17:58;19.40;;;14.13;;
14052;SDS011;7101;51.600;7.310;2023-01-23T08:20:31;20.85;;;14.27;;
14052;SDS011;7101;51.600;7.310;2023-01-23T08:22:58;20.83;;;14.05;;
14052;SDS011;7101;51.600;7.310;2023-01-23T08:25:27;19.60;;;13.68;;
14052;SDS011;7101;51.600;7.310;2023-01-23T08:28:00;20.20;;;13.68;;
14052;SDS011;7101;51.600;7.310;2023-01-23T08:30:27;23.92;;;14.43;;
14052;SDS011;7101;51.600;7.310;2023-01-23T08:32:56;21.92;;;14.73;;
14052;SDS011;7101;51.600;7.310;2023-01-23T08:35:24;21.90;;;15.52;;
14052;SDS011;7101;51.600;7.310;2023-01-23T08:37:55;19.80;;;14.27;;
14052;SDS011;7101;51.600;7.310;2023-01-23T08:40:22;21.75;;;14.75;;
14052;SDS011;7101;51.600;7.310;2023-01-23T08:42:50;21.45;;;14.82;;
14052;SDS011;7101;51.600;7.310;2023-01-23T08:45:17;21.98;;;15.02;;
14052;SDS011;7101;51.600;7.310;2023-01-23T08:47:44;22.90;;;15.57;;
14052;SDS011;7101;51.600;7.310;2023-01-23T08:50:11;19.63;;;14.52;;
14052;SDS011;7101;51.600;7.310;2023-01-23T08:52:39;19.35;;;13.98;;
14052;SDS011;7101;51.600;7.310;2023-01-23T08:55:06;18.55;;;13.48;;
14052;SDS011;7101;51.600;7.310;2023-01-23T08:57:34;17.98;;;13.10;;
14052;SDS011;7101;51.600;7.310;2023-01-23T09:00:03;20.23;;;13.38;;
14052;SDS011;7101;51.600;7.310;2023-01-23T09:02:32;19.02;;;13.57;;
14052;SDS011;7101;51.600;7.310;2023-01-23T09:04:59;20.08;;;14.43;;
14052;SDS011;7101;51.600;7.310;2023-01-23T09:07:28;21.83;;;14.98;;
14052;SDS011;7101;51.600;7.310;2023-01-23T09:09:54;17.65;;;13.25;;
14052;SDS011;7101;51.600;7.310;2023-01-23T09:12:21;19.45;;;13.18;;
14052;SDS011;7101;51.600;7.310;2023-01-23T09:14:48;17.77;;;13.85;;
14052;SDS011;7101;51.600;7.310;2023-01-23T09:17:17;16.08;;;12.38;;
14052;SDS011;7101;51.600;7.310;2023-01-23T09:19:45;15.20;;;11.80;;
14052;SDS011;7101;51.600;7.310;2023-01-23T09:22:14;17.10;;;11.98;;
14052;SDS011;7101;51.600;7.310;2023-01-23T09:24:41;16.60;;;11.95;;
14052;SDS011;7101;51.600;7.310;2023-01-23T09:27:15;17.42;;;12.02;;
14052;SDS011;7101;51.600;7.310;2023-01-23T09:29:42;16.35;;;11.90;;
14052;SDS011;7101;51.600;7.310;2023-01-23T09:32:11;16.42;;;11.80;;
14052;SDS011;7101;51.600;7.310;2023-01-23T09:34:39;14.93;;;10.63;;
14052;SDS011;7101;51.600;7.310;2023-01-23T09:37:07;15.32;;;10.77;;
14052;SDS011;7101;51.600;7.310;2023-01-23T09:39:34;14.07;;;10.77;;
14052;SDS011;7101;51.600;7.310;2023-01-23T09:42:02;12.90;;;10.27;;
14052;SDS011;7101;51.600;7.310;2023-01-23T09:44:34;16.58;;;12.07;;
14052;SDS011;7101;51.600;7.310;2023-01-23T09:47:05;13.70;;;10.38;;
14052;SDS011;7101;51.600;7.310;2023-01-23T09:49:42;13.20;;;10.45;;
14052;SDS011;7101;51.600;7.310;2023-01-23T09:52:14;14.05;;;10.02;;
14052;SDS011;7101;51.600;7.310;2023-01-23T09:54:44;13.40;;;9.93;;
14052;SDS011;7101;51.600;7.310;2023-01-23T09:57:14;13.60;;;10.75;;
14052;SDS011;7101;51.600;7.310;2023-01-23T09:59:45;13.05;;;10.10;;
14052;SDS011;7101;51.600;7.310;2023-01-23T10:02:17;12.70;;;9.85;;
14052;SDS011;7101;51.600;7.310;2023-01-23T10:04:47;13.50;;;10.05;;
14052;SDS011;7101;51.600;7.310;2023-01-23T10:07:36;15.02;;;9.45;;
14052;SDS011;7101;51.600;7.310;2023-01-23T10:10:18;12.15;;;9.82;;
14052;SDS011;7101;51.600;7.310;2023-01-23T10:13:15;12.10;;;9.38;;
14052;SDS011;7101;51.600;7.310;2023-01-23T10:15:52;13.25;;;9.82;;
14052;SDS011;7101;51.600;7.310;2023-01-23T10:18:47;11.50;;;9.70;;
14052;SDS011;7101;51.600;7.310;2023-01-23T10:21:23;11.00;;;8.80;;
14052;SDS011;7101;51.600;7.310;2023-01-23T10:23:57;12.13;;;9.63;;
14052;SDS011;7101;51.600;7.310;2023-01-23T10:26:30;12.70;;;9.18;;
14052;SDS011;7101;51.600;7.310;2023-01-23T10:29:02;12.82;;;9.05;;
14052;SDS011;7101;51.600;7.310;2023-01-23T10:31:39;14.25;;;9.27;;
14052;SDS011;7101;51.600;7.310;2023-01-23T10:34:13;13.52;;;9.20;;
14052;SDS011;7101;51.600;7.310;2023-01-23T10:36:52;11.40;;;8.88;;
14052;SDS011;7101;51.600;7.310;2023-01-23T10:39:28;12.35;;;9.77;;
14052;SDS011;7101;51.600;7.310;2023-01-23T10:42:07;12.27;;;9.70;;
14052;SDS011;7101;51.600;7.310;2023-01-23T10:44:36;12.00;;;9.57;;
14052;SDS011;7101;51.600;7.310;2023-01-23T10:47:05;13.00;;;9.77;;
14052;SDS011;7101;51.600;7.310;2023-01-23T10:49:42;12.30;;;9.27;;
14052;SDS011;7101;51.600;7.310;2023-01-23T10:52:27;13.82;;;9.45;;
14052;SDS011;7101;51.600;7.310;2023-01-23T10:54:56;14.02;;;9.63;;
14052;SDS011;7101;51.600;7.310;2023-01-23T10:57:25;12.73;;;9.20;;
14052;SDS011;7101;51.600;7.310;2023-01-23T10:59:54;10.07;;;8.35;;
14052;SDS011;7101;51.600;7.310;2023-01-23T11:02:27;12.27;;;9.57;;
14052;SDS011;7101;51.600;7.310;2023-01-23T11:04:55;13.43;;;9.73;;
14052;SDS011;7101;51.600;7.310;2023-01-23T11:07:24;11.43;;;8.95;;
14052;SDS011;7101;51.600;7.310;2023-01-23T11:09:55;11.93;;;8.98;;
14052;SDS011;7101;51.600;7.310;2023-01-23T11:12:25;12.48;;;9.30;;
14052;SDS011;7101;51.600;7.310;2023-01-23T11:17:39;12.30;;;9.80;;
14052;SDS011;7101;51.600;7.310;2023-01-23T11:20:19;13.13;;;10.05;;
14052;SDS011;7101;51.600;7.310;2023-01-23T11:22:58;13.13;;;10.40;;
14052;SDS011;7101;51.600;7.310;2023-01-23T11:25:28;13.13;;;10.15;;
14052;SDS011;7101;51.600;7.310;2023-01-23T11:27:57;15.13;;;10.80;;
14052;SDS011;7101;51.600;7.310;2023-01-23T11:30:36;14.25;;;10.45;;
14052;SDS011;7101;51.600;7.310;2023-01-23T11:33:13;14.52;;;9.90;;
14052;SDS011;7101;51.600;7.310;2023-01-23T11:35:56;13.30;;;10.20;;
14052;SDS011;7101;51.600;7.310;2023-01-23T11:38:32;15.25;;;11.07;;
14052;SDS011;7101;51.600;7.310;2023-01-23T11:41:08;14.15;;;10.63;;
14052;SDS011;7101;51.600;7.310;2023-01-23T11:43:36;14.52;;;10.93;;
14052;SDS011;7101;51.600;7.310;2023-01-23T11:46:11;14.30;;;10.70;;
14052;SDS011;7101;51.600;7.310;2023-01-23T11:48:53;14.30;;;11.05;;
14052;SDS011;7101;51.600;7.310;2023-01-23T11:51:30;16.77;;;11.00;;
14052;SDS011;7101;51.600;7.310;2023-01-23T11:54:07;14.48;;;11.25;;
14052;SDS011;7101;51.600;7.310;2023-01-23T11:56:48;16.80;;;11.75;;
14052;SDS011;7101;51.600;7.310;2023-01-23T11:59:34;20.77;;;11.82;;
14052;SDS011;7101;51.600;7.310;2023-01-23T12:05:20;14.63;;;11.00;;
14052;SDS011;7101;51.600;7.310;2023-01-23T12:08:02;16.13;;;11.88;;
14052;SDS011;7101;51.600;7.310;2023-01-23T12:10:44;16.15;;;11.13;;
14052;SDS011;7101;51.600;7.310;2023-01-23T12:13:21;14.85;;;10.52;;
14052;SDS011;7101;51.600;7.310;2023-01-23T12:16:01;15.77;;;10.23;;
14052;SDS011;7101;51.600;7.310;2023-01-23T12:18:41;19.00;;;10.82;;
14052;SDS011;7101;51.600;7.310;2023-01-23T12:21:16;13.43;;;10.30;;
14052;SDS011;7101;51.600;7.310;2023-01-23T12:23:58;13.85;;;11.05;;
14052;SDS011;7101;51.600;7.310;2023-01-23T12:26:37;14.38;;;10.95;;
14052;SDS011;7101;51.600;7.310;2023-01-23T12:29:38;16.75;;;11.80;;
14052;SDS011;7101;51.600;7.310;2023-01-23T12:32:26;16.02;;;11.75;;
14052;SDS011;7101;51.600;7.310;2023-01-23T12:35:15;15.32;;;11.68;;
14052;SDS011;7101;51.600;7.310;2023-01-23T12:38:05;14.95;;;12.00;;
14052;SDS011;7101;51.600;7.310;2023-01-23T12:40:40;18.45;;;12.10;;
14052;SDS011;7101;51.600;7.310;2023-01-23T12:43:12;17.75;;;13.18;;
14052;SDS011;7101;51.600;7.310;2023-01-23T12:45:44;15.73;;;12.10;;
14052;SDS011;7101;51.600;7.310;2023-01-23T12:48:18;16.42;;;12.57;;
14052;SDS011;7101;51.600;7.310;2023-01-23T12:50:52;23.55;;;13.40;;
14052;SDS011;7101;51.600;7.310;2023-01-23T12:53:24;16.67;;;12.75;;
14052;SDS011;7101;51.600;7.310;2023-01-23T12:55:54;16.15;;;13.25;;
14052;SDS011;7101;51.600;7.310;2023-01-23T12:58:27;17.10;;;13.52;;
14052;SDS011;7101;51.600;7.310;2023-01-23T13:00:59;16.35;;;12.82;;
14052;SDS011;7101;51.600;7.310;2023-01-23T13:03:37;16.67;;;13.15;;
14052;SDS011;7101;51.600;7.310;2023-01-23T13:06:16;18.63;;;13.10;;
14052;SDS011;7101;51.600;7.310;2023-01-23T13:09:00;18.10;;;13.05;;
14052;SDS011;7101;51.600;7.310;2023-01-23T13:11:37;17.77;;;13.32;;
14052;SDS011;7101;51.600;7.310;2023-01-23T13:14:17;18.25;;;14.52;;
14052;SDS011;7101;51.600;7.310;2023-01-23T13:16:49;18.98;;;13.65;;
14052;SDS011;7101;51.600;7.310;2023-01-23T13:19:22;17.95;;;13.40;;
14052;SDS011;7101;51.600;7.310;2023-01-23T13:22:12;20.70;;;14.50;;
14052;SDS011;7101;51.600;7.310;2023-01-23T13:24:46;18.65;;;14.23;;
14052;SDS011;7101;51.600;7.310;2023-01-23T13:27:39;18.40;;;13.23;;
14052;SDS011;7101;51.600;7.310;2023-01-23T13:36:34;18.63;;;14.20;;
14052;SDS011;7101;51.600;7.310;2023-01-23T13:39:17;18.83;;;13.95;;
14052;SDS011;7101;51.600;7.310;2023-01-23T13:41:48;18.52;;;13.93;;
14052;SDS011;7101;51.600;7.310;2023-01-23T13:44:17;18.85;;;14.82;;
14052;SDS011;7101;51.600;7.310;2023-01-23T13:50:09;19.73;;;13.88;;
14052;SDS011;7101;51.600;7.310;2023-01-23T13:52:46;21.20;;;14.45;;
14052;SDS011;7101;51.600;7.310;2023-01-23T13:55:38;16.92;;;13.18;;
14052;SDS011;7101;51.600;7.310;2023-01-23T13:58:24;16.95;;;13.02;;
14052;SDS011;7101;51.600;7.310;2023-01-23T14:00:54;18.35;;;13.80;;
14052;SDS011;7101;51.600;7.310;2023-01-23T14:03:39;18.35;;;13.55;;
14052;SDS011;7101;51.600;7.310;2023-01-23T14:06:32;17.35;;;13.02;;
14052;SDS011;7101;51.600;7.310;2023-01-23T14:09:00;17.65;;;13.38;;
14052;SDS011;7101;51.600;7.310;2023-01-23T14:11:33;17.02;;;13.10;;
14052;SDS011;7101;51.600;7.310;2023-01-23T14:14:02;17.65;;;13.52;;
14052;SDS011;7101;51.600;7.310;2023-01-23T14:16:47;21.98;;;13.88;;
14052;SDS011;7101;51.600;7.310;2023-01-23T14:19:21;18.95;;;13.70;;
14052;SDS011;7101;51.600;7.310;2023-01-23T14:21:51;16.52;;;12.90;;
14052;SDS011;7101;51.600;7.310;2023-01-23T14:24:21;17.88;;;13.02;;
14052;SDS011;7101;51.600;7.310;2023-01-23T14:26:51;18.50;;;13.98;;
14052;SDS011;7101;51.600;7.310;2023-01-23T14:29:24;17.20;;;13.30;;
14052;SDS011;7101;51.600;7.310;2023-01-23T14:31:52;20.00;;;14.27;;
14052;SDS011;7101;51.600;7.310;2023-01-23T14:34:22;17.80;;;13.65;;
14052;SDS011;7101;51.600;7.310;2023-01-23T14:36:50;19.02;;;13.98;;
14052;SDS011;7101;51.600;7.310;2023-01-23T14:39:20;18.42;;;13.48;;
14052;SDS011;7101;51.600;7.310;2023-01-23T14:41:48;17.30;;;13.35;;
14052;SDS011;7101;51.600;7.310;2023-01-23T14:44:17;18.25;;;13.60;;
14052;SDS011;7101;51.600;7.310;2023-01-23T14:46:49;17.90;;;13.23;;
14052;SDS011;7101;51.600;7.310;2023-01-23T14:49:20;17.38;;;13.30;;
14052;SDS011;7101;51.600;7.310;2023-01-23T14:51:55;17.08;;;13.05;;
14052;SDS011;7101;51.600;7.310;2023-01-23T14:54:23;17.98;;;14.02;;
14052;SDS011;7101;51.600;7.310;2023-01-23T14:56:52;17.00;;;13.43;;
14052;SDS011;7101;51.600;7.310;2023-01-23T14:59:25;18.10;;;13.95;;
14052;SDS011;7101;51.600;7.310;2023-01-23T15:01:57;20.80;;;13.50;;
14052;SDS011;7101;51.600;7.310;2023-01-23T15:04:27;19.38;;;13.63;;
14052;SDS011;7101;51.600;7.310;2023-01-23T15:06:56;18.23;;;13.07;;
14052;SDS011;7101;51.600;7.310;2023-01-23T15:09:26;18.35;;;13.57;;
14052;SDS011;7101;51.600;7.310;2023-01-23T15:12:02;18.48;;;13.57;;
14052;SDS011;7101;51.600;7.310;2023-01-23T15:14:33;18.73;;;13.48;;
14052;SDS011;7101;51.600;7.310;2023-01-23T15:17:05;20.02;;;13.35;;
14052;SDS011;7101;51.600;7.310;2023-01-23T15:19:39;18.90;;;13.88;;